createdAt,value
2019-05-21T00:00:24.063Z,31.87
2019-05-21T00:01:24.046Z,31.98
2019-05-21T00:02:24.034Z,31.98
2019-05-21T00:03:24.027Z,32.38
2019-05-21T00:04:28.349Z,31.98
2019-05-21T00:05:24.038Z,31.98
2019-05-21T00:06:23.989Z,32.38
2019-05-21T00:07:23.976Z,31.76
2019-05-21T00:08:23.974Z,31.96
2019-05-21T00:09:23.962Z,31.98
2019-05-21T00:10:23.949Z,31.98
2019-05-21T00:11:23.975Z,31.96
2019-05-21T00:12:34.266Z,32.17
2019-05-21T00:13:23.913Z,31.87
2019-05-21T00:14:23.904Z,32.26
2019-05-21T00:15:23.898Z,31.96
2019-05-21T00:16:23.887Z,31.88
2019-05-21T00:17:23.883Z,31.78
2019-05-21T00:18:23.859Z,31.98
2019-05-21T00:19:23.851Z,31.98
2019-05-21T00:20:23.844Z,32.06
2019-05-21T00:21:23.826Z,31.96
2019-05-21T00:22:23.859Z,31.96
2019-05-21T00:23:23.809Z,31.96
2019-05-21T00:24:23.793Z,32.06
2019-05-21T00:25:23.793Z,31.87
2019-05-21T00:26:23.788Z,32.06
2019-05-21T00:27:23.764Z,33.08
2019-05-21T00:28:23.792Z,32.86
2019-05-21T00:29:23.740Z,32.97
2019-05-21T00:30:23.732Z,32.98
2019-05-21T00:31:23.717Z,32.98
2019-05-21T00:32:23.716Z,33.08
2019-05-21T00:33:23.696Z,32.97
2019-05-21T00:34:23.699Z,33.18
2019-05-21T00:35:23.680Z,32.78
2019-05-21T00:36:23.669Z,33.08
2019-05-21T00:37:23.656Z,33.38
2019-05-21T00:38:23.652Z,33.08
2019-05-21T00:39:23.674Z,32.76
2019-05-21T00:40:23.621Z,32.28
2019-05-21T00:41:23.615Z,32.97
2019-05-21T00:42:23.599Z,33.16
2019-05-21T00:43:33.887Z,31.88
2019-05-21T00:44:23.577Z,32.97
2019-05-21T00:45:23.592Z,32.98
2019-05-21T00:46:23.563Z,33.08
2019-05-21T00:47:23.553Z,32.97
2019-05-21T00:48:23.541Z,33.18
2019-05-21T00:49:23.527Z,33.18
2019-05-21T00:50:23.522Z,33.18
2019-05-21T00:51:23.517Z,33.36
2019-05-21T00:52:23.497Z,33.68
2019-05-21T00:53:23.484Z,33.98
2019-05-21T00:54:23.473Z,33.76
2019-05-21T00:55:23.464Z,33.68
2019-05-21T00:56:23.453Z,33.48
2019-05-21T00:57:23.449Z,32.88
2019-05-21T00:58:23.435Z,33.98
2019-05-21T00:59:23.423Z,34.18
2019-05-21T01:00:23.407Z,34.38
2019-05-21T01:01:23.400Z,33.58
2019-05-21T01:02:23.408Z,33.88
2019-05-21T01:03:23.376Z,34.48
2019-05-21T01:04:23.367Z,34.48
2019-05-21T01:05:23.357Z,34.38
2019-05-21T01:06:23.340Z,34.48
2019-05-21T01:07:23.331Z,34.08
2019-05-21T01:08:23.336Z,34.68
2019-05-21T01:09:23.316Z,35.28
2019-05-21T01:10:23.302Z,35.48
2019-05-21T01:11:23.292Z,35.28
2019-05-21T01:12:23.319Z,34.78
2019-05-21T01:13:23.267Z,36.08
2019-05-21T01:14:33.591Z,35.58
2019-05-21T01:15:23.249Z,35.68
2019-05-21T01:16:23.240Z,35.38
2019-05-21T01:17:23.227Z,35.16
2019-05-21T01:18:23.227Z,35.38
2019-05-21T01:19:23.208Z,36.18
2019-05-21T01:20:23.206Z,35.98
2019-05-21T01:21:23.195Z,36.36
2019-05-21T01:22:23.170Z,36.08
2019-05-21T01:23:23.158Z,36.47
2019-05-21T01:24:23.147Z,35.98
2019-05-21T01:25:23.182Z,36.88
2019-05-21T01:26:23.130Z,36.98
2019-05-21T01:27:23.117Z,36.98
2019-05-21T01:28:23.106Z,36.58
2019-05-21T01:29:23.104Z,36.58
2019-05-21T01:30:23.085Z,36.68
2019-05-21T01:31:23.125Z,36.78
2019-05-21T01:32:23.069Z,36.78
2019-05-21T01:33:23.055Z,36.78
2019-05-21T01:34:23.040Z,36.88
2019-05-21T01:35:23.027Z,36.58
2019-05-21T01:36:23.017Z,37.18
2019-05-21T01:37:23.022Z,37.77
2019-05-21T01:38:22.997Z,37.27
2019-05-21T01:39:22.986Z,37.38
2019-05-21T01:40:22.973Z,37.27
2019-05-21T01:41:22.971Z,37.68
2019-05-21T01:42:22.972Z,37.77
2019-05-21T01:43:22.940Z,37.68
2019-05-21T01:44:22.936Z,37.77
2019-05-21T01:45:33.189Z,38.07
2019-05-21T01:46:22.912Z,37.48
2019-05-21T01:47:22.906Z,37.48
2019-05-21T01:48:22.901Z,37.77
2019-05-21T01:49:22.888Z,37.68
2019-05-21T01:50:22.871Z,38.18
2019-05-21T01:51:22.859Z,37.66
2019-05-21T01:52:22.853Z,37.48
2019-05-21T01:53:22.872Z,38.07
2019-05-21T01:54:22.823Z,38.07
2019-05-21T01:55:22.817Z,38.07
2019-05-21T01:56:22.800Z,38.48
2019-05-21T01:57:22.795Z,38.28
2019-05-21T01:58:22.787Z,38.48
2019-05-21T01:59:22.778Z,38.68
2019-05-21T02:00:22.764Z,38.87
2019-05-21T02:01:22.757Z,38.98
2019-05-21T02:02:22.743Z,38.78
2019-05-21T02:03:22.749Z,38.66
2019-05-21T02:04:22.744Z,38.38
2019-05-21T02:05:32.461Z,38.48
2019-05-21T02:06:23.692Z,38.18
2019-05-21T02:07:22.687Z,38.66
2019-05-21T02:08:22.678Z,38.98
2019-05-21T02:09:22.669Z,38.78
2019-05-21T02:10:22.652Z,39.07
2019-05-21T02:11:22.640Z,39.58
2019-05-21T02:12:22.630Z,39.48
2019-05-21T02:13:22.623Z,39.18
2019-05-21T02:14:22.615Z,39.37
2019-05-21T02:15:22.621Z,39.58
2019-05-21T02:16:32.599Z,39.37
2019-05-21T02:17:22.573Z,39.78
2019-05-21T02:18:22.569Z,39.87
2019-05-21T02:19:22.623Z,39.87
2019-05-21T02:20:22.544Z,39.67
2019-05-21T02:21:22.538Z,39.67
2019-05-21T02:22:22.526Z,39.58
2019-05-21T02:23:22.512Z,39.78
2019-05-21T02:24:22.506Z,39.58
2019-05-21T02:25:22.513Z,39.67
2019-05-21T02:26:22.483Z,38.78
2019-05-21T02:27:22.475Z,39.87
2019-05-21T02:28:22.461Z,39.37
2019-05-21T02:29:22.444Z,39.37
2019-05-21T02:30:22.437Z,39.67
2019-05-21T02:31:22.459Z,39.87
2019-05-21T02:32:22.417Z,39.37
2019-05-21T02:33:22.401Z,39.87
2019-05-21T02:34:22.390Z,40.17
2019-05-21T02:35:22.388Z,40.28
2019-05-21T02:36:22.373Z,39.87
2019-05-21T02:37:22.371Z,39.87
2019-05-21T02:38:22.349Z,39.98
2019-05-21T02:39:22.336Z,39.67
2019-05-21T02:40:22.332Z,40.17
2019-05-21T02:41:22.322Z,40.78
2019-05-21T02:42:22.317Z,40.58
2019-05-21T02:43:22.314Z,40.37
2019-05-21T02:44:22.290Z,40.78
2019-05-21T02:45:22.278Z,40.78
2019-05-21T02:46:22.275Z,40.88
2019-05-21T02:47:33.085Z,40.58
2019-05-21T02:48:22.268Z,40.17
2019-05-21T02:49:22.237Z,40.58
2019-05-21T02:50:22.244Z,40.17
2019-05-21T02:51:22.226Z,40.58
2019-05-21T02:52:22.198Z,40.36
2019-05-21T02:53:22.585Z,40.17
2019-05-21T02:54:39.437Z,40.58
2019-05-21T02:55:23.165Z,41.08
2019-05-21T02:56:22.166Z,40.37
2019-05-21T02:57:22.209Z,40.67
2019-05-21T02:58:22.139Z,39.98
2019-05-21T02:59:22.130Z,40.17
2019-05-21T03:00:22.122Z,40.08
2019-05-21T03:01:22.104Z,39.95
2019-05-21T03:02:22.101Z,39.86
2019-05-21T03:03:22.085Z,40.97
2019-05-21T03:04:22.125Z,40.78
2019-05-21T03:05:22.060Z,41.17
2019-05-21T03:06:22.046Z,40.86
2019-05-21T03:07:25.215Z,40.78
2019-05-21T03:08:22.029Z,40.88
2019-05-21T03:09:22.020Z,40.97
2019-05-21T03:10:22.013Z,40.88
2019-05-21T03:11:21.999Z,40.95
2019-05-21T03:12:21.981Z,40.86
2019-05-21T03:13:21.979Z,41.17
2019-05-21T03:14:21.965Z,41.27
2019-05-21T03:15:21.958Z,41.27
2019-05-21T03:16:21.940Z,40.97
2019-05-21T03:17:21.936Z,40.88
2019-05-21T03:18:32.326Z,40.78
2019-05-21T03:19:21.917Z,41.05
2019-05-21T03:20:21.946Z,41.16
2019-05-21T03:21:21.896Z,40.95
2019-05-21T03:22:21.875Z,40.95
2019-05-21T03:23:21.870Z,40.75
2019-05-21T03:24:21.856Z,40.86
2019-05-21T03:25:21.846Z,40.75
2019-05-21T03:26:21.849Z,40.95
2019-05-21T03:27:21.819Z,40.86
2019-05-21T03:28:21.816Z,41.16
2019-05-21T03:29:21.807Z,40.86
2019-05-21T03:30:21.789Z,40.95
2019-05-21T03:31:21.817Z,41.16
2019-05-21T03:32:21.772Z,41.05
2019-05-21T03:33:21.758Z,40.86
2019-05-21T03:34:21.746Z,40.86
2019-05-21T03:35:21.734Z,40.95
2019-05-21T03:36:32.405Z,40.86
2019-05-21T03:37:22.729Z,40.86
2019-05-21T03:38:21.704Z,40.95
2019-05-21T03:39:21.699Z,41.05
2019-05-21T03:40:21.736Z,41.16
2019-05-21T03:41:21.677Z,41.16
2019-05-21T03:42:21.666Z,40.86
2019-05-21T03:43:21.655Z,40.95
2019-05-21T03:44:21.640Z,41.25
2019-05-21T03:45:21.632Z,41.46
2019-05-21T03:46:21.615Z,41.16
2019-05-21T03:47:21.618Z,41.05
2019-05-21T03:48:21.600Z,41.25
2019-05-21T03:49:32.129Z,41.05
2019-05-21T03:50:21.573Z,41.16
2019-05-21T03:51:21.573Z,41.25
2019-05-21T03:52:21.561Z,40.95
2019-05-21T03:53:21.566Z,40.95
2019-05-21T03:54:21.539Z,40.95
2019-05-21T03:55:21.523Z,41.24
2019-05-21T03:56:21.515Z,41.16
2019-05-21T03:57:21.503Z,41.25
2019-05-21T03:58:21.495Z,40.86
2019-05-21T03:59:21.478Z,41.25
2019-05-21T04:00:21.473Z,41.46
2019-05-21T04:01:21.453Z,41.03
2019-05-21T04:02:21.448Z,41.25
2019-05-21T04:03:21.452Z,41.46
2019-05-21T04:04:21.424Z,40.83
2019-05-21T04:05:21.413Z,40.73
2019-05-21T04:06:21.445Z,40.95
2019-05-21T04:07:21.395Z,41.03
2019-05-21T04:08:21.385Z,41.05
2019-05-21T04:09:21.380Z,40.73
2019-05-21T04:10:21.358Z,40.73
2019-05-21T04:11:21.465Z,40.73
2019-05-21T04:12:21.339Z,41.16
2019-05-21T04:13:21.324Z,40.73
2019-05-21T04:14:21.318Z,41.03
2019-05-21T04:15:21.309Z,40.86
2019-05-21T04:16:21.309Z,40.75
2019-05-21T04:17:21.286Z,40.34
2019-05-21T04:18:21.272Z,40.94
2019-05-21T04:19:21.268Z,40.75
2019-05-21T04:20:32.171Z,39.84
2019-05-21T04:21:21.244Z,40.73
2019-05-21T04:22:21.233Z,40.73
2019-05-21T04:23:21.223Z,39.84
2019-05-21T04:24:21.209Z,41.14
2019-05-21T04:25:21.240Z,40.83
2019-05-21T04:26:21.188Z,40.83
2019-05-21T04:27:21.181Z,40.73
2019-05-21T04:28:21.178Z,40.94
2019-05-21T04:29:21.153Z,40.83
2019-05-21T04:30:21.145Z,40.94
2019-05-21T04:31:21.151Z,40.83
2019-05-21T04:32:21.118Z,40.83
2019-05-21T04:33:21.112Z,40.94
2019-05-21T04:34:21.100Z,40.94
2019-05-21T04:35:21.092Z,40.94
2019-05-21T04:36:21.082Z,40.83
2019-05-21T04:37:21.083Z,40.94
2019-05-21T04:38:21.056Z,41.53
2019-05-21T04:39:21.044Z,41.14
2019-05-21T04:40:21.039Z,41.44
2019-05-21T04:41:21.026Z,40.94
2019-05-21T04:42:21.018Z,40.83
2019-05-21T04:43:21.000Z,41.24
2019-05-21T04:44:20.990Z,41.22
2019-05-21T04:45:20.983Z,40.94
2019-05-21T04:46:20.968Z,40.83
2019-05-21T04:47:20.976Z,41.03
2019-05-21T04:48:20.949Z,40.83
2019-05-21T04:49:20.938Z,41.24
2019-05-21T04:50:20.945Z,40.83
2019-05-21T04:51:33.105Z,40.73
2019-05-21T04:52:20.912Z,40.94
2019-05-21T04:53:20.900Z,40.83
2019-05-21T04:54:20.881Z,41.24
2019-05-21T04:55:20.877Z,41.03
2019-05-21T04:56:20.862Z,41.03
2019-05-21T04:57:20.861Z,41.44
2019-05-21T04:58:20.887Z,40.83
2019-05-21T04:59:20.829Z,41.14
2019-05-21T05:00:20.893Z,41.14
2019-05-21T05:01:20.807Z,40.92
2019-05-21T05:02:20.798Z,41.14
2019-05-21T05:03:20.798Z,40.92
2019-05-21T05:04:22.187Z,40.94
2019-05-21T05:05:20.772Z,41.14
2019-05-21T05:06:20.753Z,41.33
2019-05-21T05:07:28.387Z,41.63
2019-05-21T05:08:21.738Z,41.02
2019-05-21T05:09:20.745Z,41.31
2019-05-21T05:10:20.713Z,41.22
2019-05-21T05:11:20.700Z,41.22
2019-05-21T05:12:20.694Z,41.02
2019-05-21T05:13:20.678Z,41.02
2019-05-21T05:14:20.682Z,40.92
2019-05-21T05:15:20.653Z,41.11
2019-05-21T05:16:20.653Z,40.62
2019-05-21T05:17:20.639Z,41.31
2019-05-21T05:18:20.629Z,41.61
2019-05-21T05:19:20.615Z,41.31
2019-05-21T05:20:20.646Z,40.92
2019-05-21T05:21:20.594Z,41.02
2019-05-21T05:22:30.527Z,41.22
2019-05-21T05:23:20.575Z,41.41
2019-05-21T05:24:20.564Z,40.72
2019-05-21T05:25:20.546Z,40.62
2019-05-21T05:26:20.575Z,41.11
2019-05-21T05:27:20.531Z,41.61
2019-05-21T05:28:20.520Z,41.61
2019-05-21T05:29:20.506Z,41.61
2019-05-21T05:30:20.503Z,41.11
2019-05-21T05:31:20.490Z,41.31
2019-05-21T05:32:20.484Z,41.31
2019-05-21T05:33:20.490Z,40.72
2019-05-21T05:34:20.448Z,40.72
2019-05-21T05:35:20.439Z,40.92
2019-05-21T05:36:20.454Z,40.92
2019-05-21T05:37:20.451Z,40.72
2019-05-21T05:38:20.409Z,41.41
2019-05-21T05:39:20.398Z,41.31
2019-05-21T05:40:20.384Z,41.52
2019-05-21T05:41:20.379Z,41.31
2019-05-21T05:42:20.361Z,41.11
2019-05-21T05:43:20.776Z,41.61
2019-05-21T05:44:20.343Z,41.31
2019-05-21T05:45:20.335Z,41.52
2019-05-21T05:46:20.324Z,41.61
2019-05-21T05:47:20.322Z,41.11
2019-05-21T05:48:20.317Z,41.41
2019-05-21T05:49:20.301Z,41.61
2019-05-21T05:50:20.304Z,41.41
2019-05-21T05:51:20.293Z,41.41
2019-05-21T05:52:20.258Z,41.31
2019-05-21T05:54:49.317Z,41.41
2019-05-21T05:55:49.300Z,41.41
2019-05-21T05:56:49.313Z,41.41
2019-05-21T05:57:49.283Z,41.52
2019-05-21T05:58:49.268Z,40.92
2019-05-21T05:59:49.261Z,40.92
2019-05-21T06:00:49.253Z,42.02
2019-05-21T06:01:49.242Z,41.71
2019-05-21T06:02:49.240Z,41.71
2019-05-21T06:03:49.219Z,41.61
2019-05-21T06:04:49.208Z,41.71
2019-05-21T06:05:49.192Z,41.61
2019-05-21T06:06:49.193Z,41.91
2019-05-21T06:07:59.467Z,41.61
2019-05-21T06:08:50.165Z,41.82
2019-05-21T06:09:49.176Z,41.71
2019-05-21T06:10:49.141Z,41.71
2019-05-21T06:11:49.131Z,41.91
2019-05-21T06:12:49.129Z,41.22
2019-05-21T06:13:49.170Z,41.41
2019-05-21T06:14:49.099Z,41.41
2019-05-21T06:15:49.095Z,41.82
2019-05-21T06:16:49.075Z,42.21
2019-05-21T06:17:49.079Z,42.02
2019-05-21T06:18:49.074Z,42.41
2019-05-21T06:19:49.050Z,41.82
2019-05-21T06:20:49.032Z,42.91
2019-05-21T06:21:49.024Z,42.51
2019-05-21T06:22:49.023Z,42.41
2019-05-21T06:23:49.042Z,42.51
2019-05-21T06:24:55.984Z,42.41
2019-05-21T06:25:48.993Z,42.21
2019-05-21T06:26:48.981Z,42.21
2019-05-21T06:27:48.966Z,41.99
2019-05-21T06:28:48.951Z,42.41
2019-05-21T06:29:48.950Z,43.69
2019-05-21T06:30:48.946Z,43.89
2019-05-21T06:31:48.923Z,43.41
2019-05-21T06:32:48.914Z,43.59
2019-05-21T06:33:48.893Z,43.61
2019-05-21T06:34:48.939Z,43.51
2019-05-21T06:35:48.874Z,43.61
2019-05-21T06:36:48.867Z,43.61
2019-05-21T06:37:48.857Z,43.51
2019-05-21T06:38:48.844Z,43.41
2019-05-21T06:39:48.835Z,43.41
2019-05-21T06:40:48.862Z,43.29
2019-05-21T06:41:48.810Z,43.39
2019-05-21T06:42:48.798Z,43.79
2019-05-21T06:43:48.790Z,43.31
2019-05-21T06:44:48.776Z,43.69
2019-05-21T06:45:48.766Z,44.01
2019-05-21T06:46:48.785Z,44.19
2019-05-21T06:47:48.749Z,43.81
2019-05-21T06:48:48.740Z,43.81
2019-05-21T06:49:48.723Z,43.21
2019-05-21T06:50:48.727Z,43.99
2019-05-21T06:52:48.698Z,44.21
2019-05-21T06:54:48.672Z,43.39
2019-05-21T06:55:58.913Z,43.79
2019-05-21T06:56:48.686Z,43.49
2019-05-21T06:57:55.629Z,43.61
2019-05-21T06:58:48.628Z,43.51
2019-05-21T06:59:48.623Z,44.31
2019-05-21T07:00:48.611Z,43.99
2019-05-21T07:01:48.602Z,44.31
2019-05-21T07:02:48.624Z,44.19
2019-05-21T07:03:48.595Z,43.99
2019-05-21T07:04:48.562Z,44.31
2019-05-21T07:05:58.457Z,43.79
2019-05-21T07:06:49.543Z,43.79
2019-05-21T07:07:48.533Z,44.21
2019-05-21T07:08:48.580Z,44.01
2019-05-21T07:09:48.514Z,43.81
2019-05-21T07:10:48.506Z,44.19
2019-05-21T07:11:48.494Z,44.11
2019-05-21T07:12:48.480Z,43.69
2019-05-21T07:13:48.465Z,43.91
2019-05-21T07:14:48.491Z,44.19
2019-05-21T07:15:48.490Z,44.51
2019-05-21T07:16:48.437Z,44.41
2019-05-21T07:17:48.427Z,44.69
2019-05-21T07:18:48.422Z,44.81
2019-05-21T07:19:48.407Z,44.41
2019-05-21T07:20:48.398Z,44.41
2019-05-21T07:21:48.395Z,45.09
2019-05-21T07:23:48.365Z,44.79
2019-05-21T07:24:48.347Z,44.69
2019-05-21T07:25:48.339Z,44.61
2019-05-21T07:26:48.353Z,44.79
2019-05-21T07:27:48.340Z,44.29
2019-05-21T07:28:59.137Z,44.99
2019-05-21T07:29:48.296Z,44.69
2019-05-21T07:30:48.346Z,44.89
2019-05-21T07:31:48.284Z,45.18
2019-05-21T07:32:55.882Z,45.39
2019-05-21T07:33:48.251Z,45.98
2019-05-21T07:34:48.252Z,45.78
2019-05-21T07:35:55.219Z,45.59
2019-05-21T07:36:48.225Z,45.68
2019-05-21T07:37:55.204Z,45.68
2019-05-21T07:38:53.270Z,45.78
2019-05-21T07:39:49.189Z,45.78
2019-05-21T07:40:48.181Z,45.98
2019-05-21T07:41:48.180Z,45.98
2019-05-21T07:42:48.163Z,46.19
2019-05-21T07:43:48.225Z,45.59
2019-05-21T07:44:48.151Z,45.78
2019-05-21T07:45:48.133Z,45.59
2019-05-21T07:46:48.142Z,46.28
2019-05-21T07:47:48.106Z,46.28
2019-05-21T07:48:48.111Z,46.26
2019-05-21T07:49:48.126Z,46.06
2019-05-21T07:50:48.073Z,46.36
2019-05-21T07:51:48.065Z,45.78
2019-05-21T07:52:48.057Z,45.76
2019-05-21T07:53:48.050Z,45.66
2019-05-21T07:54:48.034Z,45.86
2019-05-21T07:55:48.044Z,45.59
2019-05-21T07:56:48.010Z,46.68
2019-05-21T07:57:48.001Z,46.56
2019-05-21T07:58:47.998Z,45.76
2019-05-21T07:59:47.975Z,46.56
2019-05-21T08:00:47.964Z,46.19
2019-05-21T08:01:47.969Z,46.16
2019-05-21T08:02:47.945Z,46.66
2019-05-21T08:03:47.940Z,46.66
2019-05-21T08:04:47.930Z,46.26
2019-05-21T08:05:47.917Z,46.16
2019-05-21T08:06:47.914Z,46.56
2019-05-21T08:07:47.899Z,46.36
2019-05-21T08:09:12.730Z,45.56
2019-05-21T08:09:48.869Z,45.56
2019-05-21T08:10:47.859Z,45.76
2019-05-21T08:11:47.863Z,45.76
2019-05-21T08:12:47.885Z,45.56
2019-05-21T08:13:47.831Z,45.66
2019-05-21T08:14:47.825Z,45.66
2019-05-21T08:15:47.814Z,45.76
2019-05-21T08:16:47.800Z,45.66
2019-05-21T08:17:47.787Z,45.76
2019-05-21T08:18:47.830Z,45.47
2019-05-21T08:19:47.770Z,45.76
2019-05-21T08:20:47.758Z,46.36
2019-05-21T08:21:47.745Z,46.16
2019-05-21T08:22:47.747Z,46.36
2019-05-21T08:23:47.722Z,45.86
2019-05-21T08:24:47.724Z,45.44
2019-05-21T08:25:47.703Z,46.16
2019-05-21T08:26:47.696Z,45.84
2019-05-21T08:27:47.679Z,46.16
2019-05-21T08:28:47.685Z,45.76
2019-05-21T08:29:54.921Z,45.96
2019-05-21T08:30:47.644Z,46.06
2019-05-21T08:31:47.637Z,45.74
2019-05-21T08:32:47.628Z,46.06
2019-05-21T08:33:47.612Z,45.86
2019-05-21T08:34:47.624Z,45.86
2019-05-21T08:35:47.599Z,45.74
2019-05-21T08:36:47.592Z,45.66
2019-05-21T08:37:47.579Z,45.64
2019-05-21T08:38:47.559Z,45.66
2019-05-21T08:39:47.554Z,46.04
2019-05-21T08:40:47.565Z,46.04
2019-05-21T08:41:47.534Z,46.26
2019-05-21T08:42:47.524Z,46.34
2019-05-21T08:43:47.515Z,45.54
2019-05-21T08:44:47.514Z,46.84
2019-05-21T08:45:47.488Z,46.54
2019-05-21T08:46:47.474Z,46.44
2019-05-21T08:47:47.520Z,47.33
2019-05-21T08:48:47.454Z,47.93
2019-05-21T08:49:47.456Z,48.03
2019-05-21T08:50:47.453Z,48.43
2019-05-21T08:51:47.436Z,48.23
2019-05-21T08:52:47.417Z,48.43
2019-05-21T08:53:47.407Z,48.21
2019-05-21T08:54:47.395Z,47.81
2019-05-21T08:55:47.405Z,47.91
2019-05-21T08:56:47.371Z,47.11
2019-05-21T08:58:05.056Z,47.02
2019-05-21T08:58:48.347Z,47.02
2019-05-21T08:59:47.335Z,47.41
2019-05-21T09:00:57.479Z,46.81
2019-05-21T09:01:47.319Z,46.22
2019-05-21T09:02:47.306Z,46.31
2019-05-21T09:03:47.302Z,46.51
2019-05-21T09:04:47.301Z,46.59
2019-05-21T09:05:47.280Z,46.91
2019-05-21T09:06:47.272Z,46.91
2019-05-21T09:07:52.889Z,46.91
2019-05-21T09:08:48.242Z,46.42
2019-05-21T09:09:50.483Z,46.20
2019-05-21T09:10:47.231Z,46.99
2019-05-21T09:11:47.216Z,46.79
2019-05-21T09:12:47.218Z,46.79
2019-05-21T09:13:47.198Z,47.89
2019-05-21T09:14:47.186Z,46.89
2019-05-21T09:15:47.174Z,47.79
2019-05-21T09:16:47.157Z,47.89
2019-05-21T09:17:47.144Z,48.08
2019-05-21T09:18:47.149Z,47.49
2019-05-21T09:19:47.137Z,47.89
2019-05-21T09:20:47.113Z,48.19
2019-05-21T09:21:47.102Z,48.08
2019-05-21T09:22:47.099Z,47.89
2019-05-21T09:23:47.113Z,47.59
2019-05-21T09:24:47.083Z,47.59
2019-05-21T09:25:49.573Z,46.99
2019-05-21T09:26:47.053Z,47.69
2019-05-21T09:27:54.533Z,46.89
2019-05-21T09:28:47.026Z,46.97
2019-05-21T09:29:47.031Z,47.27
2019-05-21T09:30:47.006Z,47.07
2019-05-21T09:31:47.004Z,46.57
2019-05-21T09:32:46.994Z,46.27
2019-05-21T09:33:46.990Z,47.17
2019-05-21T09:34:49.232Z,46.47
2019-05-21T09:35:46.954Z,45.87
2019-05-21T09:36:46.949Z,46.37
2019-05-21T09:37:46.933Z,46.27
2019-05-21T09:38:46.947Z,45.78
2019-05-21T09:39:46.952Z,45.67
2019-05-21T09:40:46.899Z,45.67
2019-05-21T09:41:46.885Z,45.18
2019-05-21T09:42:46.877Z,45.67
2019-05-21T09:43:46.869Z,45.87
2019-05-21T09:44:46.860Z,45.48
2019-05-21T09:45:46.854Z,45.37
2019-05-21T09:46:46.837Z,44.68
2019-05-21T09:47:46.831Z,44.88
2019-05-21T09:48:46.828Z,44.48
2019-05-21T09:49:46.802Z,44.68
2019-05-21T09:50:46.811Z,44.78
2019-05-21T09:51:46.785Z,44.58
2019-05-21T09:52:46.778Z,44.58
2019-05-21T09:53:46.761Z,44.18
2019-05-21T09:54:46.747Z,44.58
2019-05-21T09:55:46.746Z,44.08
2019-05-21T09:56:46.738Z,43.68
2019-05-21T09:57:46.724Z,44.08
2019-05-21T09:58:57.522Z,43.79
2019-05-21T09:59:53.687Z,43.79
2019-05-21T10:00:46.697Z,44.28
2019-05-21T10:01:47.945Z,44.08
2019-05-21T10:02:46.664Z,44.18
2019-05-21T10:03:46.828Z,44.18
2019-05-21T10:04:46.642Z,43.98
2019-05-21T10:05:46.637Z,43.68
2019-05-21T10:06:46.630Z,43.68
2019-05-21T10:07:46.613Z,43.68
2019-05-21T10:08:46.598Z,43.88
2019-05-21T10:09:46.623Z,43.79
2019-05-21T10:10:46.582Z,43.68
2019-05-21T10:11:46.585Z,43.88
2019-05-21T10:12:46.569Z,44.78
2019-05-21T10:13:46.577Z,43.88
2019-05-21T10:14:46.536Z,43.88
2019-05-21T10:15:46.525Z,43.98
2019-05-21T10:16:46.517Z,44.18
2019-05-21T10:17:46.512Z,43.98
2019-05-21T10:18:46.496Z,44.28
2019-05-21T10:19:46.485Z,44.08
2019-05-21T10:20:46.477Z,43.38
2019-05-21T10:21:46.462Z,43.79
2019-05-21T10:22:46.457Z,43.88
2019-05-21T10:23:46.488Z,43.88
2019-05-21T10:24:46.431Z,44.18
2019-05-21T10:25:46.415Z,44.48
2019-05-21T10:26:46.411Z,43.68
2019-05-21T10:27:46.404Z,43.98
2019-05-21T10:28:46.417Z,43.49
2019-05-21T10:29:46.399Z,44.18
2019-05-21T10:30:57.108Z,43.88
2019-05-21T10:31:46.357Z,43.98
2019-05-21T10:32:46.346Z,43.68
2019-05-21T10:33:46.418Z,43.88
2019-05-21T10:34:46.324Z,44.18
2019-05-21T10:35:46.312Z,44.18
2019-05-21T10:36:46.303Z,43.59
2019-05-21T10:37:54.555Z,43.88
2019-05-21T10:38:47.296Z,43.59
2019-05-21T10:39:46.269Z,43.88
2019-05-21T10:40:46.260Z,43.79
2019-05-21T10:41:46.361Z,43.88
2019-05-21T10:42:46.243Z,43.88
2019-05-21T10:43:46.261Z,43.38
2019-05-21T10:44:46.216Z,43.68
2019-05-21T10:45:46.209Z,43.88
2019-05-21T10:46:46.201Z,43.68
2019-05-21T10:47:46.196Z,43.68
2019-05-21T10:48:46.175Z,43.59
2019-05-21T10:49:46.176Z,43.90
2019-05-21T10:50:46.162Z,44.08
2019-05-21T10:51:46.138Z,43.98
2019-05-21T10:52:46.133Z,43.90
2019-05-21T10:53:46.121Z,43.71
2019-05-21T10:54:46.116Z,44.31
2019-05-21T10:55:46.106Z,44.10
2019-05-21T10:56:48.307Z,44.01
2019-05-21T10:57:46.079Z,44.10
2019-05-21T10:58:46.064Z,43.60
2019-05-21T10:59:46.060Z,44.01
2019-05-21T11:00:46.106Z,44.10
2019-05-21T11:01:56.268Z,44.01
2019-05-21T11:02:46.022Z,43.68
2019-05-21T11:03:46.012Z,44.31
2019-05-21T11:04:54.111Z,43.71
2019-05-21T11:05:46.031Z,44.10
2019-05-21T11:06:45.980Z,43.60
2019-05-21T11:07:45.975Z,44.31
2019-05-21T11:08:45.959Z,44.50
2019-05-21T11:09:45.973Z,44.50
2019-05-21T11:10:45.940Z,44.20
2019-05-21T11:11:45.945Z,44.20
2019-05-21T11:12:45.923Z,44.31
2019-05-21T11:13:45.904Z,44.50
2019-05-21T11:14:45.892Z,44.10
2019-05-21T11:15:45.922Z,44.31
2019-05-21T11:16:45.870Z,44.10
2019-05-21T11:17:59.000Z,43.90
2019-05-21T11:18:46.858Z,43.60
2019-05-21T11:19:45.885Z,44.10
2019-05-21T11:20:45.827Z,44.01
2019-05-21T11:21:45.888Z,43.80
2019-05-21T11:22:52.798Z,44.10
2019-05-21T11:23:52.869Z,43.71
2019-05-21T11:24:45.783Z,44.01
2019-05-21T11:25:45.805Z,44.10
2019-05-21T11:26:45.765Z,44.10
2019-05-21T11:27:45.764Z,43.98
2019-05-21T11:28:45.755Z,43.80
2019-05-21T11:29:45.737Z,43.60
2019-05-21T11:30:45.721Z,44.01
2019-05-21T11:31:56.309Z,43.80
2019-05-21T11:32:48.028Z,44.31
2019-05-21T11:33:45.784Z,44.31
2019-05-21T11:34:45.686Z,44.10
2019-05-21T11:35:45.674Z,43.71
2019-05-21T11:36:45.657Z,44.10
2019-05-21T11:37:47.776Z,43.80
2019-05-21T11:38:45.642Z,43.80
2019-05-21T11:39:45.633Z,44.01
2019-05-21T11:40:50.836Z,44.10
2019-05-21T11:41:46.604Z,44.01
2019-05-21T11:42:45.602Z,44.08
2019-05-21T11:43:45.607Z,44.10
2019-05-21T11:44:45.579Z,44.31
2019-05-21T11:45:45.572Z,43.68
2019-05-21T11:46:45.553Z,43.60
2019-05-21T11:47:45.557Z,43.71
2019-05-21T11:48:45.574Z,43.60
2019-05-21T11:49:45.520Z,43.71
2019-05-21T11:50:45.512Z,43.68
2019-05-21T11:51:45.501Z,43.60
2019-05-21T11:52:45.492Z,43.88
2019-05-21T11:53:45.478Z,44.08
2019-05-21T11:54:56.181Z,43.80
2019-05-21T11:55:45.461Z,43.59
2019-05-21T11:56:45.446Z,43.90
2019-05-21T11:57:45.436Z,44.10
2019-05-21T11:58:45.470Z,43.90
2019-05-21T11:59:45.425Z,44.01
2019-05-21T12:00:45.403Z,44.01
2019-05-21T12:01:45.421Z,44.20
2019-05-21T12:02:45.382Z,44.31
2019-05-21T12:03:45.373Z,44.31
2019-05-21T12:04:45.400Z,44.10
2019-05-21T12:05:45.367Z,44.10
2019-05-21T12:06:45.369Z,44.10
2019-05-21T12:07:45.334Z,44.10
2019-05-21T12:08:56.193Z,44.10
2019-05-21T12:09:46.348Z,44.01
2019-05-21T12:10:45.295Z,43.80
2019-05-21T12:11:45.290Z,43.80
2019-05-21T12:12:45.285Z,43.90
2019-05-21T12:13:45.275Z,43.90
2019-05-21T12:14:45.258Z,44.31
2019-05-21T12:15:45.271Z,44.10
2019-05-21T12:16:45.229Z,44.10
2019-05-21T12:17:45.221Z,44.20
2019-05-21T12:18:45.225Z,44.31
2019-05-21T12:19:45.200Z,44.31
2019-05-21T12:20:45.204Z,44.31
2019-05-21T12:21:45.212Z,44.31
2019-05-21T12:22:45.171Z,44.20
2019-05-21T12:23:45.159Z,44.20
2019-05-21T12:24:45.150Z,44.10
2019-05-21T12:25:56.240Z,44.40
2019-05-21T12:26:45.121Z,44.31
2019-05-21T12:27:45.121Z,44.10
2019-05-21T12:28:45.099Z,44.50
2019-05-21T12:29:45.091Z,44.80
2019-05-21T12:30:45.083Z,44.40
2019-05-21T12:31:45.090Z,44.10
2019-05-21T12:32:45.062Z,44.10
2019-05-21T12:33:45.057Z,44.50
2019-05-21T12:34:45.050Z,44.50
2019-05-21T12:35:45.030Z,44.31
2019-05-21T12:36:45.056Z,44.31
2019-05-21T12:37:45.013Z,44.31
2019-05-21T12:38:44.999Z,44.40
2019-05-21T12:39:44.988Z,44.50
2019-05-21T12:40:44.978Z,44.31
2019-05-21T12:41:44.961Z,45.00
2019-05-21T12:42:44.963Z,44.70
2019-05-21T12:43:44.946Z,44.60
2019-05-21T12:44:44.935Z,44.50
2019-05-21T12:45:44.924Z,44.60
2019-05-21T12:46:44.908Z,44.80
2019-05-21T12:47:44.910Z,45.00
2019-05-21T12:48:44.933Z,44.70
2019-05-21T12:49:44.878Z,44.70
2019-05-21T12:50:44.864Z,44.70
2019-05-21T12:51:44.862Z,44.70
2019-05-21T12:52:44.848Z,44.70
2019-05-21T12:53:44.840Z,44.70
2019-05-21T12:54:44.837Z,45.00
2019-05-21T12:55:44.816Z,44.90
2019-05-21T12:56:55.541Z,45.00